createdAt,value
2023-05-10T00:01:42.816Z,70.47
2023-05-10T00:04:09.949Z,70.46
2023-05-10T00:06:36.880Z,70.64
2023-05-10T00:09:04.551Z,70.82
2023-05-10T00:11:31.564Z,71.09
2023-05-10T00:13:58.410Z,72.21
2023-05-10T00:16:25.463Z,71.95
2023-05-10T00:18:52.305Z,72.60
2023-05-10T00:21:19.183Z,72.58
2023-05-10T00:23:46.059Z,73.24
2023-05-10T00:26:13.004Z,73.40
2023-05-10T00:28:39.995Z,74.42
2023-05-10T00:31:06.917Z,75.30
2023-05-10T00:33:33.897Z,75.61
2023-05-10T00:36:01.177Z,76.31
2023-05-10T00:38:28.094Z,76.85
2023-05-10T00:40:55.035Z,77.20
2023-05-10T00:43:21.939Z,77.75
2023-05-10T00:45:49.518Z,78.26
2023-05-10T00:48:16.429Z,78.93
2023-05-10T00:50:43.358Z,79.21
2023-05-10T00:53:10.674Z,79.27
2023-05-10T00:55:38.372Z,79.95
2023-05-10T00:58:06.089Z,80.52
2023-05-10T01:00:34.439Z,80.55
2023-05-10T01:03:02.389Z,80.63
2023-05-10T01:05:29.472Z,80.95
2023-05-10T01:07:57.234Z,80.34
2023-05-10T01:10:24.185Z,80.12
2023-05-10T01:12:52.002Z,80.11
2023-05-10T01:15:19.861Z,80.04
2023-05-10T01:17:48.536Z,80.31
2023-05-10T01:20:16.336Z,80.78
2023-05-10T01:22:51.081Z,80.29
2023-05-10T01:25:32.938Z,80.25
2023-05-10T01:28:28.041Z,80.40
2023-05-10T01:31:16.742Z,80.28
2023-05-10T01:33:56.154Z,80.49
2023-05-10T01:36:33.885Z,80.62
2023-05-10T01:39:33.336Z,79.99
2023-05-10T01:42:11.465Z,79.59
2023-05-10T01:44:50.256Z,78.83
2023-05-10T01:47:25.437Z,78.15
2023-05-10T01:50:01.928Z,78.01
2023-05-10T01:52:34.584Z,77.76
2023-05-10T01:55:04.087Z,78.00
2023-05-10T01:57:36.358Z,77.97
2023-05-10T02:00:08.812Z,77.37
2023-05-10T02:02:43.114Z,77.78
2023-05-10T02:05:13.127Z,77.84
2023-05-10T02:07:40.953Z,78.12
2023-05-10T02:10:10.404Z,78.30
2023-05-10T02:12:40.559Z,78.01
2023-05-10T02:15:08.948Z,78.06
2023-05-10T02:17:38.280Z,78.19
2023-05-10T02:20:07.513Z,78.63
2023-05-10T02:22:36.131Z,79.09
2023-05-10T02:25:04.392Z,79.49
2023-05-10T02:27:31.880Z,79.43
2023-05-10T02:29:59.579Z,79.46
2023-05-10T02:32:28.017Z,80.00
2023-05-10T02:34:56.018Z,79.97
2023-05-10T02:37:23.803Z,79.40
2023-05-10T02:39:53.451Z,79.12
2023-05-10T02:42:26.299Z,79.00
2023-05-10T02:44:57.630Z,79.00
2023-05-10T02:47:24.921Z,79.19
2023-05-10T02:49:51.788Z,79.22
2023-05-10T02:52:25.925Z,79.30
2023-05-10T02:54:56.572Z,79.14
2023-05-10T02:57:35.431Z,79.26
2023-05-10T03:00:04.392Z,79.66
2023-05-10T03:02:32.063Z,79.43
2023-05-10T03:04:59.297Z,79.66
2023-05-10T03:07:26.568Z,79.52
2023-05-10T03:09:53.836Z,80.05
2023-05-10T03:12:45.767Z,80.17
2023-05-10T03:15:33.805Z,80.42
2023-05-10T03:18:12.128Z,81.65
2023-05-10T03:21:02.829Z,81.77
2023-05-10T03:23:51.773Z,84.60
2023-05-10T03:26:25.136Z,85.98
2023-05-10T03:28:53.459Z,87.41
2023-05-10T03:31:20.577Z,88.43
2023-05-10T03:33:52.279Z,87.88
2023-05-10T03:36:19.926Z,88.68
2023-05-10T03:38:46.898Z,88.21
2023-05-10T03:41:14.001Z,88.03
2023-05-10T03:43:40.908Z,88.43
2023-05-10T03:46:07.733Z,88.56
2023-05-10T03:48:34.691Z,88.25
2023-05-10T03:51:01.592Z,88.88
2023-05-10T03:53:28.671Z,89.00
2023-05-10T03:55:55.664Z,88.33
2023-05-10T03:58:22.962Z,88.75
2023-05-10T04:00:49.849Z,88.65
2023-05-10T04:03:16.963Z,88.67
2023-05-10T04:05:43.968Z,89.13
2023-05-10T04:08:10.956Z,88.40
2023-05-10T04:10:38.000Z,88.22
2023-05-10T04:13:04.871Z,88.02
2023-05-10T04:15:31.753Z,88.44
2023-05-10T04:17:58.906Z,89.35
2023-05-10T04:20:26.253Z,88.89
2023-05-10T04:22:53.180Z,88.71
2023-05-10T04:25:20.139Z,89.43
2023-05-10T04:27:47.053Z,89.72
2023-05-10T04:30:14.155Z,89.51
2023-05-10T04:32:41.321Z,89.41
2023-05-10T04:35:08.670Z,90.00
2023-05-10T04:37:35.741Z,88.96
2023-05-10T04:40:04.103Z,88.84
2023-05-10T04:42:30.985Z,88.73
2023-05-10T04:44:58.000Z,88.28
2023-05-10T04:47:24.968Z,88.09
2023-05-10T04:49:52.029Z,88.42
2023-05-10T04:52:19.076Z,87.68
2023-05-10T04:54:45.944Z,87.66
2023-05-10T04:57:12.801Z,87.87
2023-05-10T04:59:39.706Z,87.50
2023-05-10T05:02:06.923Z,86.87
2023-05-10T05:04:33.777Z,86.83
2023-05-10T05:07:00.667Z,86.75
2023-05-10T05:09:27.565Z,87.64
2023-05-10T05:11:54.589Z,87.28
2023-05-10T05:14:26.177Z,87.60
2023-05-10T05:16:53.801Z,87.51
2023-05-10T05:19:20.680Z,87.12
2023-05-10T05:21:47.775Z,87.52
2023-05-10T05:24:14.626Z,87.03
2023-05-10T05:26:41.490Z,87.24
2023-05-10T05:29:08.494Z,86.86
2023-05-10T05:31:35.386Z,86.91
2023-05-10T05:34:02.541Z,86.69
2023-05-10T05:36:29.550Z,86.10
2023-05-10T05:38:56.530Z,86.19
2023-05-10T05:41:23.541Z,86.23
2023-05-10T05:43:50.437Z,86.10
2023-05-10T05:46:17.364Z,85.38
2023-05-10T05:48:44.337Z,84.69
2023-05-10T05:51:14.006Z,84.32
2023-05-10T05:53:41.024Z,83.74
2023-05-10T05:56:09.134Z,83.27
2023-05-10T05:58:36.608Z,82.55
2023-05-10T06:01:03.549Z,82.69
2023-05-10T06:03:30.968Z,82.10
2023-05-10T06:05:57.935Z,81.14
2023-05-10T06:08:24.859Z,81.97
2023-05-10T06:10:51.930Z,80.75
2023-05-10T06:13:18.926Z,79.97
2023-05-10T06:15:46.469Z,80.05
2023-05-10T06:18:13.340Z,80.01
2023-05-10T06:20:42.761Z,79.85
2023-05-10T06:23:09.702Z,78.86
2023-05-10T06:25:36.610Z,78.73
2023-05-10T06:28:03.544Z,78.97
2023-05-10T06:30:30.575Z,78.51
2023-05-10T06:32:57.643Z,77.66
2023-05-10T06:35:24.714Z,76.94
2023-05-10T06:37:52.452Z,76.55
2023-05-10T06:40:19.759Z,75.64
2023-05-10T06:42:47.435Z,77.00
2023-05-10T06:45:16.054Z,74.55
2023-05-10T06:47:43.223Z,75.42
2023-05-10T06:50:12.532Z,74.25
2023-05-10T06:52:40.008Z,73.92
2023-05-10T06:55:27.458Z,73.93
2023-05-10T06:57:55.017Z,73.62
2023-05-10T07:00:22.099Z,73.07
2023-05-10T07:02:49.065Z,72.50
2023-05-10T07:05:16.480Z,71.90
2023-05-10T07:07:43.464Z,70.75
2023-05-10T07:10:10.905Z,69.71
2023-05-10T07:12:37.842Z,70.84
2023-05-10T07:15:05.705Z,71.34
2023-05-10T07:17:34.416Z,71.11
2023-05-10T07:20:01.564Z,70.76
2023-05-10T07:22:28.463Z,69.95
2023-05-10T07:24:55.591Z,68.54
2023-05-10T07:27:22.453Z,68.53
2023-05-10T07:29:49.593Z,67.73
2023-05-10T07:32:16.732Z,67.52
2023-05-10T07:34:43.683Z,66.29
2023-05-10T07:37:10.621Z,65.57
2023-05-10T07:39:37.533Z,64.35
2023-05-10T07:42:04.672Z,63.01
2023-05-10T07:44:31.674Z,62.24
2023-05-10T07:46:58.550Z,61.76
2023-05-10T07:49:25.412Z,62.15
2023-05-10T07:51:52.429Z,62.43
2023-05-10T07:54:19.429Z,62.02
2023-05-10T07:56:48.371Z,60.05
2023-05-10T07:59:18.717Z,60.07
2023-05-10T08:01:46.146Z,62.11
2023-05-10T08:04:13.209Z,61.99
2023-05-10T08:06:41.392Z,61.07
2023-05-10T08:09:08.568Z,62.58
2023-05-10T08:11:35.486Z,62.47
2023-05-10T08:14:02.390Z,63.33
2023-05-10T08:16:29.979Z,61.65
2023-05-10T08:18:57.122Z,61.44
2023-05-10T08:21:23.961Z,60.01
2023-05-10T08:23:50.982Z,59.83
2023-05-10T08:26:17.947Z,59.83
2023-05-10T08:28:44.854Z,60.41
2023-05-10T08:31:11.839Z,60.45
2023-05-10T08:33:38.696Z,59.70
2023-05-10T08:36:05.601Z,59.63
2023-05-10T08:38:32.493Z,59.38
2023-05-10T08:41:00.447Z,60.11
2023-05-10T08:43:31.474Z,60.01
2023-05-10T08:46:02.894Z,59.83
2023-05-10T08:48:30.927Z,59.21
2023-05-10T08:50:59.960Z,55.83
2023-05-10T08:53:29.806Z,55.02
2023-05-10T08:55:56.919Z,55.93
2023-05-10T08:58:23.886Z,56.48
2023-05-10T09:00:54.231Z,55.87
2023-05-10T09:03:21.260Z,55.06
2023-05-10T09:05:50.062Z,56.04
2023-05-10T09:08:20.898Z,57.10
2023-05-10T09:10:49.620Z,57.47
2023-05-10T09:13:16.778Z,57.98
2023-05-10T09:15:45.714Z,57.16
2023-05-10T09:18:13.489Z,58.68
2023-05-10T09:20:40.652Z,57.78
2023-05-10T09:23:07.939Z,57.36
2023-05-10T09:25:34.935Z,57.21
2023-05-10T09:28:02.002Z,55.47
2023-05-10T09:30:32.428Z,55.46
2023-05-10T09:33:00.367Z,54.58
2023-05-10T09:35:30.374Z,54.93
2023-05-10T09:38:00.291Z,55.24
2023-05-10T09:40:29.315Z,55.13
2023-05-10T09:43:06.991Z,54.24
2023-05-10T09:45:37.769Z,51.88
2023-05-10T09:48:06.134Z,51.65
2023-05-10T09:50:33.232Z,50.15
2023-05-10T09:53:03.755Z,44.85
2023-05-10T09:55:41.224Z,44.92
2023-05-10T09:58:11.856Z,43.16
2023-05-10T10:00:41.458Z,46.24
2023-05-10T10:03:21.170Z,47.55
2023-05-10T10:05:49.868Z,45.73
2023-05-10T10:08:17.649Z,44.98
2023-05-10T10:10:47.625Z,45.26
2023-05-10T10:13:16.539Z,46.96
2023-05-10T10:15:45.228Z,47.46
2023-05-10T10:18:16.554Z,47.64
2023-05-10T10:20:43.978Z,46.69
2023-05-10T10:23:10.990Z,43.73
2023-05-10T10:25:40.151Z,41.10
2023-05-10T10:28:27.551Z,41.66
2023-05-10T10:30:56.927Z,43.10
2023-05-10T10:34:02.030Z,41.82
2023-05-10T10:36:29.089Z,39.42
2023-05-10T10:39:04.231Z,37.60
2023-05-10T10:41:35.295Z,36.25
2023-05-10T10:44:27.833Z,37.45
2023-05-10T10:47:24.147Z,38.41
2023-05-10T10:49:53.568Z,38.01
2023-05-10T10:52:31.076Z,38.83
2023-05-10T10:55:04.342Z,36.13
2023-05-10T10:57:46.802Z,34.72
2023-05-10T11:00:27.477Z,37.38
2023-05-10T11:02:59.069Z,40.87
2023-05-10T11:05:45.666Z,41.10
2023-05-10T11:08:28.592Z,41.21
2023-05-10T11:11:05.072Z,42.98
2023-05-10T11:13:36.057Z,41.94
2023-05-10T11:16:14.736Z,41.66
2023-05-10T11:18:42.130Z,39.15
2023-05-10T11:21:11.890Z,35.74
2023-05-10T11:23:44.764Z,35.52
2023-05-10T11:26:13.076Z,32.80
2023-05-10T11:28:49.942Z,31.98
2023-05-10T11:31:19.286Z,31.66
2023-05-10T11:33:51.085Z,31.62
2023-05-10T11:36:20.401Z,32.65
2023-05-10T11:38:48.344Z,32.00
2023-05-10T11:41:17.886Z,32.72
2023-05-10T11:43:47.865Z,37.47
2023-05-10T11:46:15.076Z,38.46
2023-05-10T11:48:43.682Z,38.96
2023-05-10T11:51:11.783Z,39.47
2023-05-10T11:53:39.320Z,40.64
2023-05-10T11:56:11.042Z,41.31
2023-05-10T11:58:39.988Z,41.77
2023-05-10T12:01:09.022Z,39.34
2023-05-10T12:03:37.059Z,37.16
2023-05-10T12:06:04.592Z,38.72
2023-05-10T12:08:32.034Z,41.59
2023-05-10T12:11:09.017Z,42.41
2023-05-10T12:13:43.778Z,43.90
2023-05-10T12:16:18.520Z,43.85
2023-05-10T12:18:46.267Z,43.66
2023-05-10T12:21:13.755Z,39.13
2023-05-10T12:23:40.857Z,35.03
2023-05-10T12:26:10.529Z,33.39
2023-05-10T12:28:39.024Z,33.78
2023-05-10T12:31:06.896Z,33.34
2023-05-10T12:33:40.039Z,34.74
2023-05-10T12:36:07.802Z,36.98
2023-05-10T12:38:40.253Z,38.90
2023-05-10T12:41:09.545Z,38.27
2023-05-10T12:43:37.321Z,40.00
2023-05-10T12:46:17.476Z,40.92
2023-05-10T12:48:45.580Z,42.21
2023-05-10T12:51:14.166Z,42.64
2023-05-10T12:53:43.689Z,42.87
2023-05-10T12:56:12.061Z,42.78
2023-05-10T12:58:39.636Z,42.17
2023-05-10T13:01:06.619Z,43.33
2023-05-10T13:03:33.718Z,43.61
2023-05-10T13:06:00.763Z,43.61
2023-05-10T13:08:27.575Z,43.34
2023-05-10T13:10:54.526Z,43.23
2023-05-10T13:13:21.420Z,42.93
2023-05-10T13:15:48.157Z,42.67
2023-05-10T13:18:15.066Z,41.89
2023-05-10T13:20:42.053Z,42.13
2023-05-10T13:23:08.941Z,41.79
2023-05-10T13:25:35.807Z,41.09
2023-05-10T13:28:03.247Z,41.51
2023-05-10T13:30:30.209Z,39.46
2023-05-10T13:32:57.276Z,37.65
2023-05-10T13:35:24.425Z,34.98
2023-05-10T13:37:51.252Z,34.83
2023-05-10T13:40:18.368Z,35.56
2023-05-10T13:42:45.562Z,36.84
2023-05-10T13:45:14.211Z,36.07
2023-05-10T13:47:41.168Z,33.36
2023-05-10T13:50:08.387Z,32.98
2023-05-10T13:52:35.415Z,32.75
2023-05-10T13:55:02.257Z,34.08
2023-05-10T13:57:29.913Z,34.42
2023-05-10T13:59:58.350Z,33.65
2023-05-10T14:02:25.776Z,32.78
2023-05-10T14:04:52.930Z,32.35
2023-05-10T14:07:20.373Z,33.35
2023-05-10T14:09:47.247Z,36.82
2023-05-10T14:12:15.535Z,38.16
2023-05-10T14:14:42.361Z,38.31
2023-05-10T14:17:11.473Z,38.20
2023-05-10T14:19:40.070Z,36.88
2023-05-10T14:22:07.328Z,37.32
2023-05-10T14:24:34.214Z,38.67
2023-05-10T14:27:01.329Z,39.25
2023-05-10T14:29:28.360Z,38.71
2023-05-10T14:31:55.182Z,36.39
2023-05-10T14:34:22.083Z,34.25
2023-05-10T14:36:48.935Z,34.34
2023-05-10T14:39:15.984Z,34.78
2023-05-10T14:41:44.032Z,33.72
2023-05-10T14:44:11.125Z,35.38
2023-05-10T14:46:38.383Z,36.61
2023-05-10T14:49:05.497Z,38.20
2023-05-10T14:51:32.808Z,37.98
2023-05-10T14:53:59.970Z,38.53
2023-05-10T14:56:29.574Z,38.11
2023-05-10T14:58:56.647Z,38.56
2023-05-10T15:01:24.159Z,39.16
2023-05-10T15:03:51.802Z,40.23
2023-05-10T15:06:26.003Z,40.64
2023-05-10T15:08:52.896Z,41.15
2023-05-10T15:11:19.781Z,40.43
2023-05-10T15:13:46.537Z,40.72
2023-05-10T15:16:13.454Z,40.89
2023-05-10T15:18:40.451Z,41.29
2023-05-10T15:21:07.430Z,41.49
2023-05-10T15:23:34.275Z,42.32
2023-05-10T15:26:01.793Z,42.27
2023-05-10T15:28:28.588Z,41.98
2023-05-10T15:30:57.193Z,41.01
2023-05-10T15:33:24.172Z,39.79
2023-05-10T15:35:51.136Z,40.70
2023-05-10T15:38:18.246Z,41.44
2023-05-10T15:40:45.234Z,42.00
2023-05-10T15:43:12.111Z,41.81
2023-05-10T15:45:38.924Z,42.00
2023-05-10T15:48:05.957Z,41.82
2023-05-10T15:50:32.898Z,42.16
2023-05-10T15:52:59.818Z,43.11
2023-05-10T15:55:39.481Z,42.97
2023-05-10T15:58:06.291Z,42.80
2023-05-10T16:00:36.257Z,42.05
2023-05-10T16:03:03.290Z,41.37
2023-05-10T16:05:33.580Z,41.71
2023-05-10T16:08:01.887Z,42.21
2023-05-10T16:10:31.737Z,42.53
2023-05-10T16:12:58.782Z,42.51
2023-05-10T16:15:25.710Z,43.30
2023-05-10T16:17:52.815Z,43.75
2023-05-10T16:20:20.049Z,44.75
2023-05-10T16:22:46.943Z,45.55
2023-05-10T16:25:13.912Z,45.56
2023-05-10T16:27:41.042Z,45.96
2023-05-10T16:30:08.708Z,46.38
2023-05-10T16:32:35.601Z,46.32
2023-05-10T16:35:02.464Z,46.00
2023-05-10T16:37:29.364Z,46.15
2023-05-10T16:39:56.416Z,46.01
2023-05-10T16:42:24.282Z,46.32
2023-05-10T16:44:51.127Z,46.32
2023-05-10T16:47:18.411Z,46.44
2023-05-10T16:49:45.746Z,46.51
2023-05-10T16:52:12.653Z,46.57
2023-05-10T16:54:39.557Z,46.41
2023-05-10T16:57:06.413Z,46.15
2023-05-10T16:59:33.386Z,46.13
2023-05-10T17:02:00.348Z,46.14
2023-05-10T17:04:27.258Z,46.13
2023-05-10T17:06:54.200Z,46.58
2023-05-10T17:09:21.354Z,46.22
2023-05-10T17:11:48.360Z,46.25
2023-05-10T17:14:15.168Z,46.18
2023-05-10T17:16:42.155Z,46.04
2023-05-10T17:19:09.483Z,46.09
2023-05-10T17:21:36.559Z,46.03
2023-05-10T17:24:03.437Z,46.31
2023-05-10T17:26:30.573Z,46.37
2023-05-10T17:28:57.897Z,46.47
2023-05-10T17:31:24.921Z,46.97
2023-05-10T17:33:51.869Z,47.16
2023-05-10T17:36:18.965Z,47.21
2023-05-10T17:38:45.861Z,47.52
2023-05-10T17:41:12.735Z,47.74
2023-05-10T17:43:39.581Z,47.93
2023-05-10T17:46:06.497Z,48.47
2023-05-10T17:48:33.821Z,48.58
2023-05-10T17:51:00.696Z,48.50
2023-05-10T17:53:27.607Z,48.41
2023-05-10T17:55:58.071Z,48.52
2023-05-10T17:58:25.449Z,49.17
2023-05-10T18:00:53.007Z,49.33
2023-05-10T18:03:19.964Z,49.41
2023-05-10T18:05:47.986Z,49.77
2023-05-10T18:08:15.728Z,49.72
2023-05-10T18:10:42.802Z,49.91
2023-05-10T18:13:09.796Z,49.87
2023-05-10T18:15:37.286Z,50.07
2023-05-10T18:18:05.254Z,50.21
2023-05-10T18:20:32.848Z,50.53
2023-05-10T18:23:00.136Z,51.18
2023-05-10T18:25:27.403Z,51.45
2023-05-10T18:27:54.674Z,51.43
2023-05-10T18:30:22.754Z,52.02
2023-05-10T18:32:50.756Z,52.65
2023-05-10T18:35:19.574Z,52.68
2023-05-10T18:37:48.696Z,53.98
2023-05-10T18:40:17.724Z,53.79
2023-05-10T18:42:50.187Z,54.49
2023-05-10T18:45:18.928Z,54.48
2023-05-10T18:47:47.396Z,55.39
2023-05-10T18:50:17.600Z,54.78
2023-05-10T18:52:46.890Z,54.95
2023-05-10T18:55:15.590Z,54.99
2023-05-10T18:57:45.270Z,55.60
2023-05-10T19:00:14.482Z,56.02
2023-05-10T19:02:42.667Z,56.34
2023-05-10T19:05:10.920Z,56.76
2023-05-10T19:07:44.950Z,56.75
2023-05-10T19:10:13.955Z,56.61
2023-05-10T19:12:41.969Z,57.85
2023-05-10T19:15:10.747Z,57.91
2023-05-10T19:17:40.732Z,58.01
2023-05-10T19:20:10.760Z,58.17
2023-05-10T19:22:54.158Z,59.39
2023-05-10T19:25:29.806Z,59.62
2023-05-10T19:27:58.681Z,60.58
2023-05-10T19:30:27.138Z,61.73
2023-05-10T19:32:56.065Z,62.46
2023-05-10T19:35:24.217Z,61.76
2023-05-10T19:37:52.688Z,62.47
2023-05-10T19:40:20.631Z,62.63
2023-05-10T19:42:49.009Z,62.61
2023-05-10T19:45:17.370Z,62.64
2023-05-10T19:47:45.614Z,62.69
2023-05-10T19:50:14.008Z,62.51
2023-05-10T19:52:42.908Z,63.14
2023-05-10T19:55:11.872Z,63.46
2023-05-10T19:57:39.822Z,63.12
2023-05-10T20:00:08.450Z,63.43
2023-05-10T20:02:36.233Z,65.42
2023-05-10T20:05:04.244Z,64.42
2023-05-10T20:07:32.258Z,64.29
2023-05-10T20:09:59.939Z,63.96
2023-05-10T20:12:27.381Z,63.24
2023-05-10T20:14:54.576Z,64.07
2023-05-10T20:17:22.257Z,63.74
2023-05-10T20:19:49.618Z,64.27
2023-05-10T20:22:17.214Z,64.20
2023-05-10T20:24:44.500Z,64.55
2023-05-10T20:27:12.083Z,64.14
2023-05-10T20:29:40.132Z,63.94
2023-05-10T20:32:07.908Z,64.13
2023-05-10T20:34:35.595Z,64.49
2023-05-10T20:37:04.262Z,64.54
2023-05-10T20:39:31.992Z,64.77
2023-05-10T20:42:00.301Z,64.47
2023-05-10T20:44:28.004Z,64.93
2023-05-10T20:46:57.464Z,64.96
2023-05-10T20:49:25.115Z,64.73
2023-05-10T20:51:52.026Z,64.73
2023-05-10T20:54:18.900Z,64.86
2023-05-10T20:56:45.838Z,65.05
2023-05-10T20:59:12.789Z,65.19
2023-05-10T21:01:39.740Z,65.16
2023-05-10T21:04:06.786Z,66.19
2023-05-10T21:06:33.627Z,66.17
2023-05-10T21:09:00.418Z,65.98
2023-05-10T21:11:27.266Z,66.36
2023-05-10T21:13:54.155Z,66.79
2023-05-10T21:16:21.249Z,67.30
2023-05-10T21:18:48.152Z,67.41
2023-05-10T21:21:15.027Z,66.33
2023-05-10T21:23:41.847Z,65.68
2023-05-10T21:26:08.658Z,66.73
2023-05-10T21:28:35.638Z,66.32
2023-05-10T21:31:02.519Z,66.18
2023-05-10T21:33:29.444Z,65.94
2023-05-10T21:35:56.963Z,66.00
2023-05-10T21:38:23.800Z,66.98
2023-05-10T21:40:50.574Z,67.45
2023-05-10T21:43:17.374Z,67.78
2023-05-10T21:45:44.230Z,68.01
2023-05-10T21:48:11.118Z,68.45
2023-05-10T21:50:38.040Z,67.83
2023-05-10T21:53:05.106Z,68.59
2023-05-10T21:55:32.013Z,68.84
2023-05-10T21:57:58.835Z,69.24
2023-05-10T22:00:25.671Z,68.46
2023-05-10T22:02:52.666Z,69.88
2023-05-10T22:05:19.584Z,69.55
2023-05-10T22:07:46.372Z,69.27
2023-05-10T22:10:13.274Z,69.66
2023-05-10T22:12:40.055Z,69.82
2023-05-10T22:15:10.166Z,70.30
2023-05-10T22:17:39.622Z,70.29
2023-05-10T22:20:08.497Z,70.30
2023-05-10T22:22:36.786Z,70.40
2023-05-10T22:25:05.799Z,71.21
2023-05-10T22:27:32.641Z,70.69
2023-05-10T22:29:59.552Z,70.86
2023-05-10T22:32:26.373Z,70.81
2023-05-10T22:34:53.254Z,71.00
2023-05-10T22:37:20.129Z,70.94
2023-05-10T22:39:47.114Z,71.56
2023-05-10T22:42:14.074Z,71.45
2023-05-10T22:44:40.989Z,71.63
2023-05-10T22:47:09.068Z,71.16
2023-05-10T22:49:35.953Z,72.33
2023-05-10T22:52:02.805Z,72.14
2023-05-10T22:54:29.670Z,72.38
2023-05-10T22:56:56.738Z,73.00
2023-05-10T22:59:23.865Z,73.91
2023-05-10T23:01:50.821Z,74.16
2023-05-10T23:04:18.070Z,74.36
2023-05-10T23:06:45.956Z,74.03
2023-05-10T23:09:12.815Z,74.28
2023-05-10T23:11:39.655Z,74.77
2023-05-10T23:14:06.480Z,75.02
2023-05-10T23:16:33.434Z,74.80
2023-05-10T23:19:00.305Z,76.01
2023-05-10T23:21:28.294Z,75.72
2023-05-10T23:23:56.280Z,76.50
2023-05-10T23:26:23.179Z,76.56
2023-05-10T23:28:50.009Z,77.42
2023-05-10T23:31:16.854Z,76.78
2023-05-10T23:33:43.697Z,77.09
2023-05-10T23:36:10.597Z,78.11
2023-05-10T23:38:39.273Z,78.70
2023-05-10T23:41:06.250Z,77.79
2023-05-10T23:43:33.155Z,77.37
2023-05-10T23:46:00.123Z,76.88
2023-05-10T23:48:27.000Z,77.30
2023-05-10T23:50:53.866Z,77.18
2023-05-10T23:53:20.748Z,76.86
2023-05-10T23:55:47.616Z,75.48
2023-05-10T23:58:14.594Z,73.02
